Shepherdstown, WV (25443)

4:44 AM EST on February 10, 2016 (GMT -0500)
Maddex Farm | | Change Station
CLOSE
Current Station
Personal Weather Station
Location: Shepherdstown, WV
Elevation: 406 ft
Nearby Weather Stations

Elev 406 ft 39.44 °N, 77.82 °W | Updated 1 minute ago

Overcast
Overcast
28.5 °F
Feels Like 28 °F
N
3.0
Wind Variable Wind from WNW
Gusts 10.0 mph

Today
High -- | Low -- °F
--% Chance of Precip.
Yesterday
High -- | Low -- °F
Precip. -- in
Pressure 29.71 in
Visibility 10.0 miles
Clouds Mostly Cloudy 3800 ft
Mostly Cloudy 7000 ft
Overcast 9000 ft
Windchill 28 °F
Dew Point 20 °F
Humidity 71%
Rainfall 0.00 in
Snow Depth Not available.
7:09 AM 5:41 PM
Waxing Crescent, 4% visible
METAR KMRB 100853Z AUTO 28010KT 10SM BKN038 BKN070 OVC090 M02/M09 A2970 RMK AO2 SLP061 T10221094 55000 TSNO
Pressure 29.71 in
Visibility 10.0 miles
Clouds Mostly Cloudy 3800 ft
Mostly Cloudy 7000 ft
Overcast 9000 ft
Windchill 28 °F
Dew Point 20 °F
Humidity 71%
Rainfall 0.00 in
Snow Depth Not available.
7:09 AM 5:41 PM
Waxing Crescent, 4% visible
METAR KMRB 100853Z AUTO 28010KT 10SM BKN038 BKN070 OVC090 M02/M09 A2970 RMK AO2 SLP061 T10221094 55000 TSNO

10-Day Weather Forecast

Almanac

Astronomy

Feb. 10, 2016 Rise Set
Actual Time
Civil Twilight
Nautical Twilight
Astronomical Twilight
Moon
Length of Visible Light
Length of Day
Tomorrow will be .
, % of the Moon is Illuminated

Today's Extremes

State Highs State Lows

Community

WunderPhotos

Upload Photos

1,891,826 photos uploaded!

WunderBlog® & News

Nearby

Air Quality

  Air Quality AQ Index Pollutant
Not available.

Snow Depth

Station Depth Elevation

Earthquake Activity

City Distance Mag. Time & Date
Minimum magnitude displayed is 2.5.

Coastal Water Temperatures

Place Temperature

Stations

Nearby Weather Stations

Station Location Temp. Windchill Dew Point Humidity Wind Precip. Elev Updated Type
                   

Watches & Warnings

There are currently no watches in effect.